Flight Track Log - Related Links

Times and Time Zones

All times are in EDT time to prevent confusion due to time zone crossing. See the SWA243 flight status page for this flight to view local times or setup timezone preferences in your user account.

Time Position Orientation Groundspeed Altitude Reporting Facility
EDT Latitude Longitude Course Direction KTS MPH feet Rate Location/Type
Sun 10:42:41 PM 32.8333 -96.8333 264° West 171 197 1,500  Level Dallas / Fort Worth TRACON
Sun 10:43:41 PM 32.7833 -96.8167 164° South 224 258 3,500 2,400 Climbing Dallas / Fort Worth TRACON
Sun 10:44:41 PM 32.7333 -96.7833 151° Southeast 235 270 6,300 2,895 Climbing Dallas / Fort Worth TRACON
Sun 10:45:35 PM 32.6833 -96.8333 220° Southwest 236 272 9,000 2,143 Climbing Dallas / Fort Worth TRACON
Sun 10:47:29 PM 32.6844 -96.9914 271° West 284 327 12,300 1,862 Climbing Fort Worth Center
Sun 10:48:00 PM 32.8582 -97.6182 264° West  Level FlightAware Approximate
Sun 10:48:29 PM 32.7097 -97.0900 287° West 329 379 14,400  Level Fort Worth Center
Sun 10:49:29 PM 32.7392 -97.2133 286° West 355 409 16,700 1,700 Climbing Fort Worth Center
Sun 10:50:29 PM 32.7667 -97.3244 286° West 377 434 17,800 1,350 Climbing Fort Worth Center
Sun 10:51:29 PM 32.8019 -97.4728 286° West 404 465 19,400 1,600 Climbing Fort Worth Center
Sun 10:52:29 PM 32.8375 -97.6161 286° West 427 491 21,000 1,900 Climbing Fort Worth Center
Sun 10:53:29 PM 32.8664 -97.7572 284° West 448 516 23,200 2,050 Climbing Fort Worth Center
Sun 10:54:29 PM 32.8678 -97.8958 271° West 441 507 25,100 1,600 Climbing Fort Worth Center
Sun 10:55:29 PM 32.8653 -98.0367 269° West 441 507 26,400 1,250 Climbing Fort Worth Center
Sun 10:56:29 PM 32.8644 -98.1825 270° West 441 507 27,600 1,150 Climbing Fort Worth Center
Sun 10:57:29 PM 32.8614 -98.3286 269° West 441 507 28,700 1,100 Climbing Fort Worth Center
Sun 10:58:29 PM 32.8581 -98.4744 268° West 441 507 29,800 1,150 Climbing Fort Worth Center
Sun 10:59:29 PM 32.8881 -98.6158 284° West 431 496 31,000 1,400 Climbing Fort Worth Center
Sun 11:00:29 PM 32.9453 -98.7503 297° West 437 503 32,600 1,500 Climbing Fort Worth Center
Sun 11:01:29 PM 32.9958 -98.8797 295° West 437 503 34,000 1,250 Climbing Fort Worth Center
Sun 11:02:29 PM 33.0467 -99.0044 296° West 432 497 35,100 900 Climbing Fort Worth Center
Sun 11:03:29 PM 33.0992 -99.1344 296° West 426 490 35,800 450 Climbing Fort Worth Center
Sun 11:04:29 PM 33.1494 -99.2619 295° West 426 490 36,000 100 Climbing Fort Worth Center
Sun 11:05:29 PM 33.2017 -99.3944 295° West 426 490 36,000  Level Fort Worth Center
Sun 11:06:29 PM 33.2558 -99.5275 296° West 431 496 36,000  Level Fort Worth Center
Sun 11:07:29 PM 33.3039 -99.6553 294° West 431 496 36,000  Level Fort Worth Center
Sun 11:08:29 PM 33.3556 -99.7861 295° West 431 496 36,000  Level Fort Worth Center
Sun 11:09:29 PM 33.4075 -99.9142 296° West 426 490 36,000  Level Fort Worth Center
Sun 11:10:29 PM 33.4569 -100.0428 295° West 426 490 36,000  Level Fort Worth Center
Sun 11:11:29 PM 33.5064 -100.1711 295° West 426 490 36,000  Level Fort Worth Center
Sun 11:12:29 PM 33.5556 -100.2997 295° West 426 490 36,000  Level Fort Worth Center
Sun 11:13:29 PM 33.6047 -100.4336 294° West 426 490 36,000  Level Fort Worth Center
Sun 11:14:29 PM 33.6558 -100.5653 295° West 426 490 36,000  Level Fort Worth Center
Sun 11:15:29 PM 33.7067 -100.6969 295° West 431 496 36,000  Level Fort Worth Center
Sun 11:16:29 PM 33.7594 -100.8311 295° West 437 503 36,000  Level Fort Worth Center
Sun 11:17:29 PM 33.8078 -100.9631 294° West 437 503 36,000  Level Fort Worth Center
Sun 11:18:29 PM 33.8522 -101.0875 293° West 442 509 36,000  Level Fort Worth Center
Sun 11:19:29 PM 33.9086 -101.2300 296° West 440 506 36,000  Level Fort Worth Center
Sun 11:20:29 PM 33.9528 -101.3494 294° West 434 499 36,000  Level Fort Worth Center
Sun 11:21:29 PM 34.0067 -101.4947 294° West 429 494 36,000  Level Fort Worth Center
Sun 11:22:29 PM 34.0486 -101.6094 294° West 419 482 36,000  Level Fort Worth Center
Sun 11:23:29 PM 34.1022 -101.7500 295° West 419 482 36,000  Level Fort Worth Center
Sun 11:24:47 PM 34.1608 -101.9139 293° West 423 487 36,000  Level Albuquerque Center
Sun 11:25:48 PM 34.2086 -102.0439 294° West 423 487 36,000  Level Albuquerque Center
Sun 11:26:49 PM 34.2561 -102.1756 294° West 424 488 36,000  Level Albuquerque Center
Sun 11:27:51 PM 34.3036 -102.3053 294° West 423 487 36,000  Level Albuquerque Center
Sun 11:28:52 PM 34.3519 -102.4383 294° West 427 491 36,000  Level Albuquerque Center
Sun 11:29:53 PM 34.3994 -102.5722 293° West 430 495 36,000  Level Albuquerque Center
Sun 11:30:55 PM 34.4483 -102.7064 294° West 432 497 36,000  Level Albuquerque Center
Sun 11:31:56 PM 34.5011 -102.8653 292° West 433 498 36,000  Level Albuquerque Center
Sun 11:32:57 PM 34.5164 -103.0144 277° West 437 503 36,000 -439 Level Albuquerque Center
Sun 11:33:59 PM 34.5347 -103.1619 279° West 440 506 35,100 -976 Descending Albuquerque Center
Sun 11:35:00 PM 34.5519 -103.3078 278° West 436 502 34,000 -976 Descending Albuquerque Center
Sun 11:36:02 PM 34.5692 -103.4542 278° West 434 499 33,100 -927 Descending Albuquerque Center
Sun 11:37:03 PM 34.5869 -103.6011 278° West 436 502 32,100 -541 Descending Albuquerque Center
Sun 11:38:04 PM 34.6225 -103.7417 287° West 432 497 32,000 -49 Descending Albuquerque Center
Sun 11:39:06 PM 34.6558 -103.8781 287° West 420 483 32,000  Level Albuquerque Center
Sun 11:40:07 PM 34.6900 -104.0172 287° West 423 487 32,000  Level Albuquerque Center
Sun 11:41:08 PM 34.7253 -104.1611 287° West 434 499 32,000  Level Albuquerque Center
Sun 11:42:09 PM 34.7608 -104.3089 286° West 445 512 32,000  Level Albuquerque Center
Sun 11:43:11 PM 34.7956 -104.4536 286° West 442 509 32,000 -244 Level Albuquerque Center
Sun 11:44:12 PM 34.8253 -104.5981 284° West 438 504 31,500 -689 Descending Albuquerque Center
Sun 11:45:13 PM 34.8406 -104.7503 277° West 446 513 30,600 -885 Descending Albuquerque Center
Sun 11:46:14 PM 34.8575 -104.9039 278° West 449 517 29,700 -927 Descending Albuquerque Center
Sun 11:47:16 PM 34.8731 -105.0539 277° West 446 513 28,700 -976 Descending Albuquerque Center
Sun 11:48:17 PM 34.8886 -105.1992 277° West 433 498 27,700 -984 Descending Albuquerque Center
Sun 11:49:18 PM 34.9036 -105.3422 277° West 425 489 26,700 -984 Descending Albuquerque Center
Sun 11:50:19 PM 34.9181 -105.4831 277° West 419 482 25,700 -1,033 Descending Albuquerque Center
Sun 11:51:20 PM 34.9342 -105.6469 277° West 415 478 24,600 -992 Descending Albuquerque Center
Sun 11:52:26 PM 34.9458 -105.7928 276° West 412 474 23,600 -878 Descending Albuquerque Center
Sun 11:53:23 PM 34.9608 -105.9264 278° West 416 479 22,800 -1,373 Descending Albuquerque Center
Sun 11:54:24 PM 34.9756 -106.0750 277° West 427 491 20,900 -1,820 Descending Albuquerque Center
Sun 11:55:25 PM 34.9864 -106.2083 276° West 410 472 19,100 -2,311 Descending Albuquerque Center
Sun 11:56:26 PM 34.9764 -106.3403 265° West 393 452 16,200 -2,803 Descending Albuquerque Center
Sun 11:57:27 PM 34.9650 -106.4758 264° West 399 459 13,400 -1,672 Descending Albuquerque Center
Sun 11:58:28 PM 34.9364 -106.5847 252° West 357 411 12,800 -1,525 Descending Albuquerque Center
Sun 11:59:29 PM 34.8906 -106.6578 233° Southwest 292 336 10,300 -1,721 Descending Albuquerque Center
Mon 12:00:30 AM 34.8572 -106.7231 238° Southwest 255 293 9,300 -1,180 Descending Albuquerque Center
Mon 12:01:31 AM 34.9039 -106.7375 346° North 217 250 7,900 -1,131 Descending Albuquerque Center
Mon 12:02:32 AM 34.9481 -106.7117 26° Northeast 192 221 7,000 -738 Descending Albuquerque Center
Mon 12:03:33 AM 34.9856 -106.6769 37° Northeast 179 206 6,400 -738 Descending Albuquerque Center
Mon 12:04:34 AM 35.0169 -106.6350 48° Northeast 172 198 5,500 -541 Descending Albuquerque Center
Mon 12:05:35 AM 35.0489 -106.5953 46° Northeast 171 197 5,300 -197 Descending Albuquerque Center

Login

Don't have an account? Register now (free) for customized features, flight alerts, and more!